sensor_id;sensor_type;location;lat;lon;timestamp;P1;durP1;ratioP1;P2;durP2;ratioP2
13989;SDS011;7069;52.528;13.316;2023-03-21T00:00:23;12.30;;;8.13;;
13989;SDS011;7069;52.528;13.316;2023-03-21T00:02:50;7.77;;;7.17;;
13989;SDS011;7069;52.528;13.316;2023-03-21T00:05:16;9.07;;;8.27;;
13989;SDS011;7069;52.528;13.316;2023-03-21T00:07:46;9.50;;;8.80;;
13989;SDS011;7069;52.528;13.316;2023-03-21T00:10:12;8.10;;;7.30;;
13989;SDS011;7069;52.528;13.316;2023-03-21T00:12:39;9.67;;;8.67;;
13989;SDS011;7069;52.528;13.316;2023-03-21T00:15:07;9.90;;;8.90;;
13989;SDS011;7069;52.528;13.316;2023-03-21T00:17:33;11.30;;;9.93;;
13989;SDS011;7069;52.528;13.316;2023-03-21T00:20:00;10.20;;;9.13;;
13989;SDS011;7069;52.528;13.316;2023-03-21T00:22:28;10.77;;;9.43;;
13989;SDS011;7069;52.528;13.316;2023-03-21T00:24:56;11.03;;;9.93;;
13989;SDS011;7069;52.528;13.316;2023-03-21T00:27:23;10.83;;;9.57;;
13989;SDS011;7069;52.528;13.316;2023-03-21T00:29:49;12.50;;;10.77;;
13989;SDS011;7069;52.528;13.316;2023-03-21T00:32:15;10.60;;;9.50;;
13989;SDS011;7069;52.528;13.316;2023-03-21T00:34:42;11.47;;;10.27;;
13989;SDS011;7069;52.528;13.316;2023-03-21T00:37:08;10.43;;;9.40;;
13989;SDS011;7069;52.528;13.316;2023-03-21T00:39:36;13.57;;;10.27;;
13989;SDS011;7069;52.528;13.316;2023-03-21T00:42:03;15.60;;;10.53;;
13989;SDS011;7069;52.528;13.316;2023-03-21T00:44:30;11.53;;;10.33;;
13989;SDS011;7069;52.528;13.316;2023-03-21T00:47:00;10.20;;;9.30;;
13989;SDS011;7069;52.528;13.316;2023-03-21T00:49:27;13.27;;;11.40;;
13989;SDS011;7069;52.528;13.316;2023-03-21T00:51:57;12.00;;;10.80;;
13989;SDS011;7069;52.528;13.316;2023-03-21T00:54:24;13.13;;;10.00;;
13989;SDS011;7069;52.528;13.316;2023-03-21T00:56:51;11.10;;;10.00;;
13989;SDS011;7069;52.528;13.316;2023-03-21T00:59:18;13.57;;;10.93;;
13989;SDS011;7069;52.528;13.316;2023-03-21T01:01:45;15.93;;;11.30;;
13989;SDS011;7069;52.528;13.316;2023-03-21T01:04:12;12.63;;;11.43;;
13989;SDS011;7069;52.528;13.316;2023-03-21T01:06:40;13.57;;;11.10;;
13989;SDS011;7069;52.528;13.316;2023-03-21T01:09:08;11.33;;;10.33;;
13989;SDS011;7069;52.528;13.316;2023-03-21T01:11:36;12.77;;;11.03;;
13989;SDS011;7069;52.528;13.316;2023-03-21T01:14:03;14.10;;;11.07;;
13989;SDS011;7069;52.528;13.316;2023-03-21T01:16:31;14.83;;;12.93;;
13989;SDS011;7069;52.528;13.316;2023-03-21T01:18:57;20.37;;;12.80;;
13989;SDS011;7069;52.528;13.316;2023-03-21T01:21:23;13.40;;;12.00;;
13989;SDS011;7069;52.528;13.316;2023-03-21T01:23:50;18.87;;;13.43;;
13989;SDS011;7069;52.528;13.316;2023-03-21T01:26:16;13.63;;;12.33;;
13989;SDS011;7069;52.528;13.316;2023-03-21T01:28:43;14.23;;;12.80;;
13989;SDS011;7069;52.528;13.316;2023-03-21T01:31:10;14.87;;;13.07;;
13989;SDS011;7069;52.528;13.316;2023-03-21T01:33:38;17.07;;;14.87;;
13989;SDS011;7069;52.528;13.316;2023-03-21T01:36:05;17.43;;;15.63;;
13989;SDS011;7069;52.528;13.316;2023-03-21T01:38:32;17.70;;;15.93;;
13989;SDS011;7069;52.528;13.316;2023-03-21T01:40:59;15.93;;;14.33;;
13989;SDS011;7069;52.528;13.316;2023-03-21T01:43:26;18.60;;;16.60;;
13989;SDS011;7069;52.528;13.316;2023-03-21T01:48:47;21.10;;;17.43;;
13989;SDS011;7069;52.528;13.316;2023-03-21T01:51:14;18.73;;;16.77;;
13989;SDS011;7069;52.528;13.316;2023-03-21T01:53:41;20.00;;;17.93;;
13989;SDS011;7069;52.528;13.316;2023-03-21T01:56:08;19.63;;;17.53;;
13989;SDS011;7069;52.528;13.316;2023-03-21T01:58:36;21.87;;;19.77;;
13989;SDS011;7069;52.528;13.316;2023-03-21T02:01:03;20.60;;;18.50;;
13989;SDS011;7069;52.528;13.316;2023-03-21T02:03:30;20.73;;;18.53;;
13989;SDS011;7069;52.528;13.316;2023-03-21T02:06:03;19.57;;;17.60;;
13989;SDS011;7069;52.528;13.316;2023-03-21T02:08:31;24.70;;;19.73;;
13989;SDS011;7069;52.528;13.316;2023-03-21T02:10:58;20.97;;;18.13;;
13989;SDS011;7069;52.528;13.316;2023-03-21T02:13:25;22.70;;;18.50;;
13989;SDS011;7069;52.528;13.316;2023-03-21T02:15:52;22.77;;;19.97;;
13989;SDS011;7069;52.528;13.316;2023-03-21T02:18:23;22.50;;;19.70;;
13989;SDS011;7069;52.528;13.316;2023-03-21T02:29:08;25.30;;;21.33;;
13989;SDS011;7069;52.528;13.316;2023-03-21T02:31:40;26.80;;;20.90;;
13989;SDS011;7069;52.528;13.316;2023-03-21T02:34:15;21.77;;;19.57;;
13989;SDS011;7069;52.528;13.316;2023-03-21T02:36:50;23.27;;;20.87;;
13989;SDS011;7069;52.528;13.316;2023-03-21T02:39:19;23.20;;;20.20;;
13989;SDS011;7069;52.528;13.316;2023-03-21T02:41:50;21.87;;;19.43;;
13989;SDS011;7069;52.528;13.316;2023-03-21T02:44:20;23.63;;;20.67;;
13989;SDS011;7069;52.528;13.316;2023-03-21T02:46:49;26.57;;;20.70;;
13989;SDS011;7069;52.528;13.316;2023-03-21T02:49:18;25.97;;;21.57;;
13989;SDS011;7069;52.528;13.316;2023-03-21T02:51:47;24.40;;;20.67;;
13989;SDS011;7069;52.528;13.316;2023-03-21T02:54:16;24.87;;;21.60;;
13989;SDS011;7069;52.528;13.316;2023-03-21T02:56:43;23.40;;;20.67;;
13989;SDS011;7069;52.528;13.316;2023-03-21T02:59:11;21.07;;;18.80;;
13989;SDS011;7069;52.528;13.316;2023-03-21T03:01:37;22.50;;;19.90;;
13989;SDS011;7069;52.528;13.316;2023-03-21T03:04:15;24.97;;;22.17;;
13989;SDS011;7069;52.528;13.316;2023-03-21T03:06:44;27.87;;;21.13;;
13989;SDS011;7069;52.528;13.316;2023-03-21T03:09:18;28.70;;;23.73;;
13989;SDS011;7069;52.528;13.316;2023-03-21T03:11:50;25.20;;;21.17;;
13989;SDS011;7069;52.528;13.316;2023-03-21T03:14:28;24.10;;;21.50;;
13989;SDS011;7069;52.528;13.316;2023-03-21T03:16:59;25.90;;;20.97;;
13989;SDS011;7069;52.528;13.316;2023-03-21T03:19:29;24.03;;;20.73;;
13989;SDS011;7069;52.528;13.316;2023-03-21T03:21:59;26.23;;;21.67;;
13989;SDS011;7069;52.528;13.316;2023-03-21T03:24:28;23.00;;;20.40;;
13989;SDS011;7069;52.528;13.316;2023-03-21T03:26:57;25.67;;;21.20;;
13989;SDS011;7069;52.528;13.316;2023-03-21T03:29:24;26.97;;;22.57;;
13989;SDS011;7069;52.528;13.316;2023-03-21T03:31:52;20.77;;;18.33;;
13989;SDS011;7069;52.528;13.316;2023-03-21T03:34:22;22.27;;;19.53;;
13989;SDS011;7069;52.528;13.316;2023-03-21T03:36:51;28.03;;;22.97;;
13989;SDS011;7069;52.528;13.316;2023-03-21T03:39:20;26.87;;;22.10;;
13989;SDS011;7069;52.528;13.316;2023-03-21T03:41:50;23.17;;;20.30;;
13989;SDS011;7069;52.528;13.316;2023-03-21T03:44:17;28.03;;;20.47;;
13989;SDS011;7069;52.528;13.316;2023-03-21T03:46:45;26.73;;;21.17;;
13989;SDS011;7069;52.528;13.316;2023-03-21T03:49:13;26.80;;;20.50;;
13989;SDS011;7069;52.528;13.316;2023-03-21T03:51:42;26.07;;;21.07;;
13989;SDS011;7069;52.528;13.316;2023-03-21T03:54:10;22.10;;;19.60;;
13989;SDS011;7069;52.528;13.316;2023-03-21T03:56:37;25.93;;;18.80;;
13989;SDS011;7069;52.528;13.316;2023-03-21T03:59:06;27.13;;;22.27;;
13989;SDS011;7069;52.528;13.316;2023-03-21T04:01:33;22.80;;;20.33;;
13989;SDS011;7069;52.528;13.316;2023-03-21T04:04:00;25.90;;;20.97;;
13989;SDS011;7069;52.528;13.316;2023-03-21T04:06:26;22.77;;;20.03;;
13989;SDS011;7069;52.528;13.316;2023-03-21T04:08:53;24.80;;;21.47;;
13989;SDS011;7069;52.528;13.316;2023-03-21T04:11:20;29.23;;;21.03;;
13989;SDS011;7069;52.528;13.316;2023-03-21T04:13:47;28.17;;;21.17;;
13989;SDS011;7069;52.528;13.316;2023-03-21T04:16:15;24.77;;;21.20;;
13989;SDS011;7069;52.528;13.316;2023-03-21T04:18:43;28.83;;;20.70;;
13989;SDS011;7069;52.528;13.316;2023-03-21T04:21:11;21.30;;;19.07;;
13989;SDS011;7069;52.528;13.316;2023-03-21T04:23:38;26.23;;;19.27;;
13989;SDS011;7069;52.528;13.316;2023-03-21T04:26:05;23.70;;;19.23;;
13989;SDS011;7069;52.528;13.316;2023-03-21T04:28:32;20.70;;;18.53;;
13989;SDS011;7069;52.528;13.316;2023-03-21T04:31:00;23.57;;;19.80;;
13989;SDS011;7069;52.528;13.316;2023-03-21T04:33:28;27.50;;;19.37;;
13989;SDS011;7069;52.528;13.316;2023-03-21T04:35:55;25.00;;;20.97;;
13989;SDS011;7069;52.528;13.316;2023-03-21T04:38:23;27.67;;;19.87;;
13989;SDS011;7069;52.528;13.316;2023-03-21T04:40:50;22.13;;;18.40;;
13989;SDS011;7069;52.528;13.316;2023-03-21T04:43:17;23.10;;;18.40;;
13989;SDS011;7069;52.528;13.316;2023-03-21T04:45:43;27.97;;;19.87;;
13989;SDS011;7069;52.528;13.316;2023-03-21T04:48:10;19.97;;;17.77;;
13989;SDS011;7069;52.528;13.316;2023-03-21T04:50:42;18.80;;;16.57;;
13989;SDS011;7069;52.528;13.316;2023-03-21T04:53:08;23.47;;;18.73;;
13989;SDS011;7069;52.528;13.316;2023-03-21T04:55:35;23.43;;;19.63;;
13989;SDS011;7069;52.528;13.316;2023-03-21T04:58:02;25.90;;;19.43;;
13989;SDS011;7069;52.528;13.316;2023-03-21T05:00:29;23.73;;;21.13;;
13989;SDS011;7069;52.528;13.316;2023-03-21T05:02:56;25.70;;;20.70;;
13989;SDS011;7069;52.528;13.316;2023-03-21T05:05:24;25.07;;;19.00;;
13989;SDS011;7069;52.528;13.316;2023-03-21T05:07:52;23.77;;;18.50;;
13989;SDS011;7069;52.528;13.316;2023-03-21T05:10:18;26.07;;;18.63;;
13989;SDS011;7069;52.528;13.316;2023-03-21T05:12:45;28.40;;;19.73;;
13989;SDS011;7069;52.528;13.316;2023-03-21T05:15:11;23.47;;;18.37;;
13989;SDS011;7069;52.528;13.316;2023-03-21T05:17:38;28.23;;;20.23;;
13989;SDS011;7069;52.528;13.316;2023-03-21T05:20:08;31.63;;;20.40;;
13989;SDS011;7069;52.528;13.316;2023-03-21T05:22:35;24.90;;;19.13;;
13989;SDS011;7069;52.528;13.316;2023-03-21T05:25:07;27.13;;;19.60;;
13989;SDS011;7069;52.528;13.316;2023-03-21T05:27:34;27.13;;;19.67;;
13989;SDS011;7069;52.528;13.316;2023-03-21T05:30:01;24.87;;;19.97;;
13989;SDS011;7069;52.528;13.316;2023-03-21T05:32:28;25.70;;;19.53;;
13989;SDS011;7069;52.528;13.316;2023-03-21T05:34:54;25.03;;;20.23;;
13989;SDS011;7069;52.528;13.316;2023-03-21T05:37:21;24.20;;;20.30;;
13989;SDS011;7069;52.528;13.316;2023-03-21T05:39:47;27.67;;;20.43;;
13989;SDS011;7069;52.528;13.316;2023-03-21T05:42:15;24.17;;;19.03;;
13989;SDS011;7069;52.528;13.316;2023-03-21T05:44:43;21.83;;;18.03;;
13989;SDS011;7069;52.528;13.316;2023-03-21T05:47:10;22.07;;;18.17;;
13989;SDS011;7069;52.528;13.316;2023-03-21T05:49:37;27.87;;;21.70;;
13989;SDS011;7069;52.528;13.316;2023-03-21T05:52:03;23.63;;;19.60;;
13989;SDS011;7069;52.528;13.316;2023-03-21T05:54:30;26.47;;;20.80;;
13989;SDS011;7069;52.528;13.316;2023-03-21T05:56:57;27.13;;;21.80;;
13989;SDS011;7069;52.528;13.316;2023-03-21T05:59:25;27.77;;;21.47;;
13989;SDS011;7069;52.528;13.316;2023-03-21T06:01:51;25.53;;;20.80;;
13989;SDS011;7069;52.528;13.316;2023-03-21T06:04:18;26.13;;;20.03;;
13989;SDS011;7069;52.528;13.316;2023-03-21T06:06:44;30.63;;;20.77;;
13989;SDS011;7069;52.528;13.316;2023-03-21T06:09:11;28.83;;;22.07;;
13989;SDS011;7069;52.528;13.316;2023-03-21T06:11:38;28.20;;;21.33;;
13989;SDS011;7069;52.528;13.316;2023-03-21T06:14:08;30.47;;;21.43;;
13989;SDS011;7069;52.528;13.316;2023-03-21T06:16:36;29.07;;;22.40;;
13989;SDS011;7069;52.528;13.316;2023-03-21T06:19:02;31.07;;;21.90;;
13989;SDS011;7069;52.528;13.316;2023-03-21T06:21:29;36.07;;;21.83;;
13989;SDS011;7069;52.528;13.316;2023-03-21T06:23:56;30.10;;;21.77;;
13989;SDS011;7069;52.528;13.316;2023-03-21T06:26:22;29.00;;;24.17;;
13989;SDS011;7069;52.528;13.316;2023-03-21T06:28:49;30.53;;;23.13;;
13989;SDS011;7069;52.528;13.316;2023-03-21T06:31:16;32.33;;;22.87;;
13989;SDS011;7069;52.528;13.316;2023-03-21T06:33:43;35.87;;;24.17;;
13989;SDS011;7069;52.528;13.316;2023-03-21T06:36:10;27.23;;;21.60;;
13989;SDS011;7069;52.528;13.316;2023-03-21T06:38:37;30.60;;;22.10;;
13989;SDS011;7069;52.528;13.316;2023-03-21T06:41:03;28.43;;;21.17;;
13989;SDS011;7069;52.528;13.316;2023-03-21T06:43:30;26.03;;;20.67;;
13989;SDS011;7069;52.528;13.316;2023-03-21T06:45:57;29.63;;;22.53;;
13989;SDS011;7069;52.528;13.316;2023-03-21T06:48:23;27.67;;;21.00;;
13989;SDS011;7069;52.528;13.316;2023-03-21T06:50:52;31.30;;;22.80;;
13989;SDS011;7069;52.528;13.316;2023-03-21T06:53:20;25.53;;;19.80;;
13989;SDS011;7069;52.528;13.316;2023-03-21T06:55:48;29.10;;;23.27;;
13989;SDS011;7069;52.528;13.316;2023-03-21T06:58:15;27.93;;;22.00;;
13989;SDS011;7069;52.528;13.316;2023-03-21T07:00:45;33.93;;;22.90;;
13989;SDS011;7069;52.528;13.316;2023-03-21T07:03:11;31.63;;;22.80;;
13989;SDS011;7069;52.528;13.316;2023-03-21T07:05:38;30.77;;;23.03;;
13989;SDS011;7069;52.528;13.316;2023-03-21T07:08:06;33.30;;;23.53;;
13989;SDS011;7069;52.528;13.316;2023-03-21T07:10:36;34.60;;;23.20;;
13989;SDS011;7069;52.528;13.316;2023-03-21T07:13:03;30.00;;;23.07;;
13989;SDS011;7069;52.528;13.316;2023-03-21T07:15:30;34.30;;;24.17;;
13989;SDS011;7069;52.528;13.316;2023-03-21T07:17:57;34.03;;;22.50;;
13989;SDS011;7069;52.528;13.316;2023-03-21T07:20:23;33.97;;;23.70;;
13989;SDS011;7069;52.528;13.316;2023-03-21T07:22:51;34.07;;;24.50;;
13989;SDS011;7069;52.528;13.316;2023-03-21T07:25:19;33.47;;;24.87;;
13989;SDS011;7069;52.528;13.316;2023-03-21T07:27:46;33.40;;;23.57;;
13989;SDS011;7069;52.528;13.316;2023-03-21T07:30:13;36.23;;;24.97;;
13989;SDS011;7069;52.528;13.316;2023-03-21T07:32:40;34.63;;;24.30;;
13989;SDS011;7069;52.528;13.316;2023-03-21T07:35:08;37.10;;;24.37;;
13989;SDS011;7069;52.528;13.316;2023-03-21T07:37:36;34.17;;;24.80;;
13989;SDS011;7069;52.528;13.316;2023-03-21T07:40:03;39.57;;;26.63;;
13989;SDS011;7069;52.528;13.316;2023-03-21T07:42:35;31.87;;;25.83;;
13989;SDS011;7069;52.528;13.316;2023-03-21T07:45:02;32.47;;;24.90;;
13989;SDS011;7069;52.528;13.316;2023-03-21T07:47:29;33.03;;;24.07;;
13989;SDS011;7069;52.528;13.316;2023-03-21T07:49:56;32.17;;;24.13;;
13989;SDS011;7069;52.528;13.316;2023-03-21T07:52:23;32.43;;;25.00;;
13989;SDS011;7069;52.528;13.316;2023-03-21T07:54:49;31.10;;;22.97;;
13989;SDS011;7069;52.528;13.316;2023-03-21T07:57:16;29.33;;;22.27;;
13989;SDS011;7069;52.528;13.316;2023-03-21T07:59:44;34.53;;;25.77;;
13989;SDS011;7069;52.528;13.316;2023-03-21T08:02:12;35.07;;;23.57;;
13989;SDS011;7069;52.528;13.316;2023-03-21T08:04:39;31.80;;;24.30;;
13989;SDS011;7069;52.528;13.316;2023-03-21T08:07:05;34.10;;;25.37;;
13989;SDS011;7069;52.528;13.316;2023-03-21T08:09:32;31.20;;;23.07;;
13989;SDS011;7069;52.528;13.316;2023-03-21T08:11:59;29.27;;;22.37;;
13989;SDS011;7069;52.528;13.316;2023-03-21T08:14:25;30.83;;;22.03;;
13989;SDS011;7069;52.528;13.316;2023-03-21T08:16:53;33.33;;;23.20;;
13989;SDS011;7069;52.528;13.316;2023-03-21T08:19:20;33.80;;;22.83;;
13989;SDS011;7069;52.528;13.316;2023-03-21T08:21:47;31.33;;;21.67;;
13989;SDS011;7069;52.528;13.316;2023-03-21T08:24:13;29.83;;;21.47;;
13989;SDS011;7069;52.528;13.316;2023-03-21T08:26:40;28.87;;;22.40;;
13989;SDS011;7069;52.528;13.316;2023-03-21T08:29:07;34.10;;;22.17;;
13989;SDS011;7069;52.528;13.316;2023-03-21T08:31:35;29.60;;;21.97;;
13989;SDS011;7069;52.528;13.316;2023-03-21T08:34:03;29.97;;;21.13;;
13989;SDS011;7069;52.528;13.316;2023-03-21T08:36:29;39.07;;;23.43;;
13989;SDS011;7069;52.528;13.316;2023-03-21T08:38:56;29.10;;;21.03;;
13989;SDS011;7069;52.528;13.316;2023-03-21T08:41:29;40.40;;;31.00;;
13989;SDS011;7069;52.528;13.316;2023-03-21T08:43:55;32.37;;;22.13;;
13989;SDS011;7069;52.528;13.316;2023-03-21T08:46:22;32.13;;;22.00;;
13989;SDS011;7069;52.528;13.316;2023-03-21T08:48:49;25.33;;;20.13;;
13989;SDS011;7069;52.528;13.316;2023-03-21T08:51:17;31.27;;;22.97;;
13989;SDS011;7069;52.528;13.316;2023-03-21T08:53:43;27.43;;;20.83;;
13989;SDS011;7069;52.528;13.316;2023-03-21T08:56:10;25.60;;;20.33;;
13989;SDS011;7069;52.528;13.316;2023-03-21T08:58:36;28.43;;;20.00;;
13989;SDS011;7069;52.528;13.316;2023-03-21T09:01:03;26.83;;;21.73;;
13989;SDS011;7069;52.528;13.316;2023-03-21T09:03:31;26.40;;;19.87;;
13989;SDS011;7069;52.528;13.316;2023-03-21T09:05:57;33.33;;;21.57;;
13989;SDS011;7069;52.528;13.316;2023-03-21T09:08:26;27.27;;;20.33;;
13989;SDS011;7069;52.528;13.316;2023-03-21T09:10:53;27.73;;;18.83;;
13989;SDS011;7069;52.528;13.316;2023-03-21T09:13:19;27.83;;;19.70;;
13989;SDS011;7069;52.528;13.316;2023-03-21T09:15:46;25.93;;;19.60;;
13989;SDS011;7069;52.528;13.316;2023-03-21T09:18:12;30.10;;;19.10;;
13989;SDS011;7069;52.528;13.316;2023-03-21T09:20:40;28.53;;;19.43;;
13989;SDS011;7069;52.528;13.316;2023-03-21T09:23:07;24.90;;;18.47;;
13989;SDS011;7069;52.528;13.316;2023-03-21T09:25:36;24.70;;;18.67;;
13989;SDS011;7069;52.528;13.316;2023-03-21T09:28:03;24.77;;;17.60;;
13989;SDS011;7069;52.528;13.316;2023-03-21T09:30:30;23.87;;;18.73;;
13989;SDS011;7069;52.528;13.316;2023-03-21T09:32:57;27.30;;;20.40;;
13989;SDS011;7069;52.528;13.316;2023-03-21T09:35:24;22.43;;;17.43;;
13989;SDS011;7069;52.528;13.316;2023-03-21T09:37:52;23.03;;;17.57;;
13989;SDS011;7069;52.528;13.316;2023-03-21T09:40:20;25.40;;;20.30;;
13989;SDS011;7069;52.528;13.316;2023-03-21T09:42:57;24.07;;;19.93;;
13989;SDS011;7069;52.528;13.316;2023-03-21T09:45:28;22.20;;;19.43;;
13989;SDS011;7069;52.528;13.316;2023-03-21T09:47:58;25.03;;;19.90;;
13989;SDS011;7069;52.528;13.316;2023-03-21T09:50:25;23.30;;;17.73;;
13989;SDS011;7069;52.528;13.316;2023-03-21T09:52:56;28.23;;;20.33;;
13989;SDS011;7069;52.528;13.316;2023-03-21T09:55:23;28.67;;;21.20;;
13989;SDS011;7069;52.528;13.316;2023-03-21T09:57:53;23.50;;;19.20;;
13989;SDS011;7069;52.528;13.316;2023-03-21T10:00:24;25.60;;;18.77;;
13989;SDS011;7069;52.528;13.316;2023-03-21T10:02:54;31.57;;;21.77;;
13989;SDS011;7069;52.528;13.316;2023-03-21T10:05:24;29.67;;;19.53;;
13989;SDS011;7069;52.528;13.316;2023-03-21T10:07:53;27.30;;;20.20;;
13989;SDS011;7069;52.528;13.316;2023-03-21T10:10:22;28.50;;;20.07;;
13989;SDS011;7069;52.528;13.316;2023-03-21T10:12:50;24.97;;;19.27;;
13989;SDS011;7069;52.528;13.316;2023-03-21T10:15:18;24.40;;;19.67;;
13989;SDS011;7069;52.528;13.316;2023-03-21T10:17:48;27.63;;;18.77;;
13989;SDS011;7069;52.528;13.316;2023-03-21T10:20:16;24.07;;;18.53;;
13989;SDS011;7069;52.528;13.316;2023-03-21T10:22:46;24.27;;;18.87;;
13989;SDS011;7069;52.528;13.316;2023-03-21T10:25:14;20.10;;;16.13;;
13989;SDS011;7069;52.528;13.316;2023-03-21T10:27:40;21.70;;;18.57;;
13989;SDS011;7069;52.528;13.316;2023-03-21T10:30:08;23.07;;;18.93;;
13989;SDS011;7069;52.528;13.316;2023-03-21T10:32:36;21.50;;;17.10;;
13989;SDS011;7069;52.528;13.316;2023-03-21T10:35:05;23.43;;;18.80;;
13989;SDS011;7069;52.528;13.316;2023-03-21T10:37:31;20.07;;;16.73;;
13989;SDS011;7069;52.528;13.316;2023-03-21T10:40:00;22.27;;;18.17;;
13989;SDS011;7069;52.528;13.316;2023-03-21T10:42:27;22.27;;;17.67;;
13989;SDS011;7069;52.528;13.316;2023-03-21T10:44:56;22.57;;;17.00;;
13989;SDS011;7069;52.528;13.316;2023-03-21T10:47:23;21.40;;;16.10;;
13989;SDS011;7069;52.528;13.316;2023-03-21T10:49:50;22.17;;;17.90;;
13989;SDS011;7069;52.528;13.316;2023-03-21T10:52:18;27.97;;;17.40;;
13989;SDS011;7069;52.528;13.316;2023-03-21T10:54:45;27.57;;;18.93;;
13989;SDS011;7069;52.528;13.316;2023-03-21T10:57:12;20.57;;;16.77;;
13989;SDS011;7069;52.528;13.316;2023-03-21T10:59:42;22.03;;;16.90;;
13989;SDS011;7069;52.528;13.316;2023-03-21T11:02:13;21.77;;;16.30;;
13989;SDS011;7069;52.528;13.316;2023-03-21T11:04:41;23.73;;;17.27;;
13989;SDS011;7069;52.528;13.316;2023-03-21T11:07:08;21.13;;;15.80;;
13989;SDS011;7069;52.528;13.316;2023-03-21T11:09:44;22.10;;;17.17;;
13989;SDS011;7069;52.528;13.316;2023-03-21T11:12:11;20.87;;;16.63;;
13989;SDS011;7069;52.528;13.316;2023-03-21T11:14:39;20.00;;;16.13;;
13989;SDS011;7069;52.528;13.316;2023-03-21T11:17:07;21.00;;;14.43;;
13989;SDS011;7069;52.528;13.316;2023-03-21T11:19:46;20.90;;;14.27;;
13989;SDS011;7069;52.528;13.316;2023-03-21T11:22:13;19.50;;;14.90;;
13989;SDS011;7069;52.528;13.316;2023-03-21T11:24:40;16.17;;;13.40;;
13989;SDS011;7069;52.528;13.316;2023-03-21T11:27:08;18.60;;;13.87;;
13989;SDS011;7069;52.528;13.316;2023-03-21T11:29:35;17.63;;;14.53;;
13989;SDS011;7069;52.528;13.316;2023-03-21T11:32:08;20.43;;;14.23;;
13989;SDS011;7069;52.528;13.316;2023-03-21T11:34:38;20.67;;;13.50;;
13989;SDS011;7069;52.528;13.316;2023-03-21T11:37:15;18.90;;;14.93;;
13989;SDS011;7069;52.528;13.316;2023-03-21T11:39:42;17.23;;;12.77;;
13989;SDS011;7069;52.528;13.316;2023-03-21T11:42:27;20.17;;;14.93;;
13989;SDS011;7069;52.528;13.316;2023-03-21T11:44:59;19.27;;;14.43;;
13989;SDS011;7069;52.528;13.316;2023-03-21T11:47:26;17.87;;;13.33;;
13989;SDS011;7069;52.528;13.316;2023-03-21T11:49:53;19.00;;;13.47;;
13989;SDS011;7069;52.528;13.316;2023-03-21T11:52:22;37.63;;;15.10;;
13989;SDS011;7069;52.528;13.316;2023-03-21T11:55:01;15.87;;;12.90;;
13989;SDS011;7069;52.528;13.316;2023-03-21T11:57:33;14.88;;;11.77;;
13989;SDS011;7069;52.528;13.316;2023-03-21T12:00:02;16.15;;;12.65;;
13989;SDS011;7069;52.528;13.316;2023-03-21T12:02:46;17.15;;;11.93;;
13989;SDS011;7069;52.528;13.316;2023-03-21T12:05:20;15.90;;;11.93;;
13989;SDS011;7069;52.528;13.316;2023-03-21T12:07:50;17.30;;;12.00;;
13989;SDS011;7069;52.528;13.316;2023-03-21T12:13:04;14.27;;;11.20;;
13989;SDS011;7069;52.528;13.316;2023-03-21T12:15:34;22.80;;;12.70;;
13989;SDS011;7069;52.528;13.316;2023-03-21T12:18:03;13.43;;;10.98;;
13989;SDS011;7069;52.528;13.316;2023-03-21T12:20:34;19.75;;;12.02;;
13989;SDS011;7069;52.528;13.316;2023-03-21T12:25:48;15.15;;;10.35;;
13989;SDS011;7069;52.528;13.316;2023-03-21T12:28:21;12.23;;;10.85;;
13989;SDS011;7069;52.528;13.316;2023-03-21T12:30:50;13.15;;;10.75;;
13989;SDS011;7069;52.528;13.316;2023-03-21T12:33:24;14.77;;;11.65;;
13989;SDS011;7069;52.528;13.316;2023-03-21T12:35:53;18.10;;;10.07;;
13989;SDS011;7069;52.528;13.316;2023-03-21T12:38:26;16.67;;;10.60;;
13989;SDS011;7069;52.528;13.316;2023-03-21T12:41:01;23.17;;;12.55;;
13989;SDS011;7069;52.528;13.316;2023-03-21T12:43:34;13.10;;;10.18;;
13989;SDS011;7069;52.528;13.316;2023-03-21T12:46:03;14.93;;;10.73;;
13989;SDS011;7069;52.528;13.316;2023-03-21T12:48:34;13.77;;;9.70;;
13989;SDS011;7069;52.528;13.316;2023-03-21T12:51:02;11.43;;;10.33;;
13989;SDS011;7069;52.528;13.316;2023-03-21T12:53:34;18.67;;;11.35;;
13989;SDS011;7069;52.528;13.316;2023-03-21T12:56:04;12.15;;;9.60;;
13989;SDS011;7069;52.528;13.316;2023-03-21T12:58:37;12.43;;;10.13;;
13989;SDS011;7069;52.528;13.316;2023-03-21T13:01:07;12.00;;;9.30;;
13989;SDS011;7069;52.528;13.316;2023-03-21T13:03:35;11.88;;;8.95;;
13989;SDS011;7069;52.528;13.316;2023-03-21T13:06:03;12.10;;;9.38;;
13989;SDS011;7069;52.528;13.316;2023-03-21T13:08:30;18.23;;;12.90;;
13989;SDS011;7069;52.528;13.316;2023-03-21T13:11:00;13.00;;;9.07;;
13989;SDS011;7069;52.528;13.316;2023-03-21T13:13:29;11.10;;;10.00;;
13989;SDS011;7069;52.528;13.316;2023-03-21T13:16:02;10.45;;;8.02;;
13989;SDS011;7069;52.528;13.316;2023-03-21T13:18:38;14.80;;;8.77;;
13989;SDS011;7069;52.528;13.316;2023-03-21T13:21:09;12.40;;;8.98;;
13989;SDS011;7069;52.528;13.316;2023-03-21T13:23:37;16.13;;;9.95;;
13989;SDS011;7069;52.528;13.316;2023-03-21T13:26:07;11.07;;;9.25;;
13989;SDS011;7069;52.528;13.316;2023-03-21T13:28:34;12.52;;;10.20;;
13989;SDS011;7069;52.528;13.316;2023-03-21T13:31:15;10.52;;;8.25;;
13989;SDS011;7069;52.528;13.316;2023-03-21T13:33:44;11.95;;;7.88;;
13989;SDS011;7069;52.528;13.316;2023-03-21T13:36:11;13.27;;;9.88;;
13989;SDS011;7069;52.528;13.316;2023-03-21T13:38:38;10.63;;;9.32;;
13989;SDS011;7069;52.528;13.316;2023-03-21T13:41:06;11.93;;;10.10;;
13989;SDS011;7069;52.528;13.316;2023-03-21T13:43:34;14.73;;;11.05;;
13989;SDS011;7069;52.528;13.316;2023-03-21T13:46:05;11.60;;;9.40;;
13989;SDS011;7069;52.528;13.316;2023-03-21T13:48:39;11.07;;;9.33;;
13989;SDS011;7069;52.528;13.316;2023-03-21T13:51:06;10.57;;;9.50;;
13989;SDS011;7069;52.528;13.316;2023-03-21T13:53:34;10.70;;;9.57;;
13989;SDS011;7069;52.528;13.316;2023-03-21T13:56:22;11.67;;;10.07;;
13989;SDS011;7069;52.528;13.316;2023-03-21T13:58:50;12.20;;;10.48;;
13989;SDS011;7069;52.528;13.316;2023-03-21T14:01:21;10.73;;;9.57;;
13989;SDS011;7069;52.528;13.316;2023-03-21T14:03:56;11.27;;;9.00;;
13989;SDS011;7069;52.528;13.316;2023-03-21T14:06:23;10.38;;;9.30;;
13989;SDS011;7069;52.528;13.316;2023-03-21T14:08:55;10.50;;;9.18;;
13989;SDS011;7069;52.528;13.316;2023-03-21T14:11:22;11.00;;;9.27;;
13989;SDS011;7069;52.528;13.316;2023-03-21T14:13:49;9.95;;;8.55;;
13989;SDS011;7069;52.528;13.316;2023-03-21T14:16:18;12.23;;;9.18;;
13989;SDS011;7069;52.528;13.316;2023-03-21T14:18:47;11.05;;;8.23;;
13989;SDS011;7069;52.528;13.316;2023-03-21T14:21:18;9.97;;;8.83;;
13989;SDS011;7069;52.528;13.316;2023-03-21T14:23:45;11.03;;;8.00;;
13989;SDS011;7069;52.528;13.316;2023-03-21T14:26:12;8.98;;;8.07;;
13989;SDS011;7069;52.528;13.316;2023-03-21T14:28:41;8.75;;;7.85;;
13989;SDS011;7069;52.528;13.316;2023-03-21T14:31:11;10.53;;;9.43;;
13989;SDS011;7069;52.528;13.316;2023-03-21T14:33:40;9.80;;;8.73;;
13989;SDS011;7069;52.528;13.316;2023-03-21T14:36:12;9.97;;;9.10;;
13989;SDS011;7069;52.528;13.316;2023-03-21T14:38:40;9.65;;;7.90;;
13989;SDS011;7069;52.528;13.316;2023-03-21T14:41:18;9.18;;;8.10;;
13989;SDS011;7069;52.528;13.316;2023-03-21T14:43:56;9.63;;;8.70;;
13989;SDS011;7069;52.528;13.316;2023-03-21T14:46:25;9.65;;;8.75;;